sensor_id;sensor_type;location;lat;lon;timestamp;temperature;humidity
16243;DHT22;11719;51.052;6.982;2022-12-07T00:01:27;12.90;99.90
16243;DHT22;11719;51.052;6.982;2022-12-07T00:03:56;13.00;99.90
16243;DHT22;11719;51.052;6.982;2022-12-07T00:06:26;13.20;99.90
16243;DHT22;11719;51.052;6.982;2022-12-07T00:08:52;12.90;99.90
16243;DHT22;11719;51.052;6.982;2022-12-07T00:11:20;13.10;99.90
16243;DHT22;11719;51.052;6.982;2022-12-07T00:13:51;13.00;99.90
16243;DHT22;11719;51.052;6.982;2022-12-07T00:16:19;12.90;99.90
16243;DHT22;11719;51.052;6.982;2022-12-07T00:18:47;12.60;99.90
16243;DHT22;11719;51.052;6.982;2022-12-07T00:21:18;12.50;99.90
16243;DHT22;11719;51.052;6.982;2022-12-07T00:23:49;12.30;99.90
16243;DHT22;11719;51.052;6.982;2022-12-07T00:26:25;12.30;99.90
16243;DHT22;11719;51.052;6.982;2022-12-07T00:28:58;12.20;99.90
16243;DHT22;11719;51.052;6.982;2022-12-07T00:31:28;12.00;99.90
16243;DHT22;11719;51.052;6.982;2022-12-07T00:33:57;11.90;99.90
16243;DHT22;11719;51.052;6.982;2022-12-07T00:36:24;11.80;99.90
16243;DHT22;11719;51.052;6.982;2022-12-07T00:38:51;11.90;99.90
16243;DHT22;11719;51.052;6.982;2022-12-07T00:41:19;11.80;99.90
16243;DHT22;11719;51.052;6.982;2022-12-07T00:43:48;12.00;99.90
16243;DHT22;11719;51.052;6.982;2022-12-07T00:46:15;11.90;99.90
16243;DHT22;11719;51.052;6.982;2022-12-07T00:48:42;12.00;99.90
16243;DHT22;11719;51.052;6.982;2022-12-07T00:51:09;12.10;99.90
16243;DHT22;11719;51.052;6.982;2022-12-07T00:53:37;12.20;99.90
16243;DHT22;11719;51.052;6.982;2022-12-07T00:56:09;12.40;99.90
16243;DHT22;11719;51.052;6.982;2022-12-07T00:58:39;12.70;99.90
16243;DHT22;11719;51.052;6.982;2022-12-07T01:01:05;12.80;99.90
16243;DHT22;11719;51.052;6.982;2022-12-07T01:03:32;12.60;99.90
16243;DHT22;11719;51.052;6.982;2022-12-07T01:05:59;12.70;99.90
16243;DHT22;11719;51.052;6.982;2022-12-07T01:08:26;12.70;99.90
16243;DHT22;11719;51.052;6.982;2022-12-07T01:11:01;12.60;99.90
16243;DHT22;11719;51.052;6.982;2022-12-07T01:13:32;12.70;99.90
16243;DHT22;11719;51.052;6.982;2022-12-07T01:16:01;12.70;99.90
16243;DHT22;11719;51.052;6.982;2022-12-07T01:18:31;12.70;99.90
16243;DHT22;11719;51.052;6.982;2022-12-07T01:21:10;12.90;99.90
16243;DHT22;11719;51.052;6.982;2022-12-07T01:23:38;12.90;99.90
16243;DHT22;11719;51.052;6.982;2022-12-07T01:26:07;12.80;99.90
16243;DHT22;11719;51.052;6.982;2022-12-07T01:28:36;12.60;99.90
16243;DHT22;11719;51.052;6.982;2022-12-07T01:31:03;12.50;99.90
16243;DHT22;11719;51.052;6.982;2022-12-07T01:33:35;12.40;99.90
16243;DHT22;11719;51.052;6.982;2022-12-07T01:36:20;12.30;99.90
16243;DHT22;11719;51.052;6.982;2022-12-07T01:38:49;12.30;99.90
16243;DHT22;11719;51.052;6.982;2022-12-07T01:41:20;12.30;99.90
16243;DHT22;11719;51.052;6.982;2022-12-07T01:46:47;12.10;99.90
16243;DHT22;11719;51.052;6.982;2022-12-07T01:51:48;12.30;99.90
16243;DHT22;11719;51.052;6.982;2022-12-07T01:54:16;12.00;99.90
16243;DHT22;11719;51.052;6.982;2022-12-07T01:56:48;11.80;99.90
16243;DHT22;11719;51.052;6.982;2022-12-07T01:59:18;11.70;99.90
16243;DHT22;11719;51.052;6.982;2022-12-07T02:01:45;11.70;99.90
16243;DHT22;11719;51.052;6.982;2022-12-07T02:04:12;11.90;99.90
16243;DHT22;11719;51.052;6.982;2022-12-07T02:06:38;11.70;99.90
16243;DHT22;11719;51.052;6.982;2022-12-07T02:09:05;11.60;99.90
16243;DHT22;11719;51.052;6.982;2022-12-07T02:11:30;11.40;99.90
16243;DHT22;11719;51.052;6.982;2022-12-07T02:13:56;11.30;99.90
16243;DHT22;11719;51.052;6.982;2022-12-07T02:40:39;12.00;99.90
16243;DHT22;11719;51.052;6.982;2022-12-07T02:43:23;12.00;99.90
16243;DHT22;11719;51.052;6.982;2022-12-07T02:45:54;12.00;99.90
16243;DHT22;11719;51.052;6.982;2022-12-07T02:48:23;11.90;99.90
16243;DHT22;11719;51.052;6.982;2022-12-07T02:50:52;11.60;99.90
16243;DHT22;11719;51.052;6.982;2022-12-07T02:55:56;11.40;99.90
16243;DHT22;11719;51.052;6.982;2022-12-07T02:58:32;11.30;99.90
16243;DHT22;11719;51.052;6.982;2022-12-07T03:01:17;11.20;99.90
16243;DHT22;11719;51.052;6.982;2022-12-07T03:04:15;11.30;99.90
16243;DHT22;11719;51.052;6.982;2022-12-07T03:07:05;11.00;99.90
16243;DHT22;11719;51.052;6.982;2022-12-07T03:12:19;10.90;99.90
16243;DHT22;11719;51.052;6.982;2022-12-07T03:15:01;10.70;99.90
16243;DHT22;11719;51.052;6.982;2022-12-07T03:17:35;10.80;99.90
16243;DHT22;11719;51.052;6.982;2022-12-07T03:20:04;10.90;99.90
16243;DHT22;11719;51.052;6.982;2022-12-07T03:22:34;10.80;99.90
16243;DHT22;11719;51.052;6.982;2022-12-07T03:25:06;10.70;99.90
16243;DHT22;11719;51.052;6.982;2022-12-07T03:27:41;10.50;99.90
16243;DHT22;11719;51.052;6.982;2022-12-07T03:30:15;10.40;99.90
16243;DHT22;11719;51.052;6.982;2022-12-07T03:32:50;10.40;99.90
16243;DHT22;11719;51.052;6.982;2022-12-07T03:38:23;10.40;99.90
16243;DHT22;11719;51.052;6.982;2022-12-07T03:41:00;10.60;99.90
16243;DHT22;11719;51.052;6.982;2022-12-07T03:43:30;10.30;99.90
16243;DHT22;11719;51.052;6.982;2022-12-07T03:49:03;10.20;99.90
16243;DHT22;11719;51.052;6.982;2022-12-07T03:54:42;10.20;99.90
16243;DHT22;11719;51.052;6.982;2022-12-07T03:57:12;10.10;99.90
16243;DHT22;11719;51.052;6.982;2022-12-07T03:59:38;10.10;99.90
16243;DHT22;11719;51.052;6.982;2022-12-07T04:02:07;10.20;99.90
16243;DHT22;11719;51.052;6.982;2022-12-07T04:04:34;10.20;99.90
16243;DHT22;11719;51.052;6.982;2022-12-07T04:07:00;10.30;99.90
16243;DHT22;11719;51.052;6.982;2022-12-07T04:09:26;10.40;99.90
16243;DHT22;11719;51.052;6.982;2022-12-07T04:11:53;10.50;99.90
16243;DHT22;11719;51.052;6.982;2022-12-07T04:14:18;10.50;99.90
16243;DHT22;11719;51.052;6.982;2022-12-07T04:16:48;10.40;99.90
16243;DHT22;11719;51.052;6.982;2022-12-07T04:19:18;10.40;99.90
16243;DHT22;11719;51.052;6.982;2022-12-07T04:21:45;10.40;99.90
16243;DHT22;11719;51.052;6.982;2022-12-07T04:24:12;10.30;99.90
16243;DHT22;11719;51.052;6.982;2022-12-07T04:26:40;10.50;99.90
16243;DHT22;11719;51.052;6.982;2022-12-07T04:29:06;10.40;99.90
16243;DHT22;11719;51.052;6.982;2022-12-07T04:31:32;10.30;99.90
16243;DHT22;11719;51.052;6.982;2022-12-07T04:33:58;10.40;99.90
16243;DHT22;11719;51.052;6.982;2022-12-07T04:36:24;10.40;99.90
16243;DHT22;11719;51.052;6.982;2022-12-07T04:38:50;10.30;99.90
16243;DHT22;11719;51.052;6.982;2022-12-07T04:41:18;10.20;99.90
16243;DHT22;11719;51.052;6.982;2022-12-07T04:43:44;10.20;99.90
16243;DHT22;11719;51.052;6.982;2022-12-07T04:46:10;10.20;99.90
16243;DHT22;11719;51.052;6.982;2022-12-07T04:48:35;10.20;99.90
16243;DHT22;11719;51.052;6.982;2022-12-07T04:51:02;10.10;99.90
16243;DHT22;11719;51.052;6.982;2022-12-07T04:53:29;10.10;99.90
16243;DHT22;11719;51.052;6.982;2022-12-07T04:55:54;10.20;99.90
16243;DHT22;11719;51.052;6.982;2022-12-07T04:58:20;10.10;99.90
16243;DHT22;11719;51.052;6.982;2022-12-07T05:00:46;10.20;99.90
16243;DHT22;11719;51.052;6.982;2022-12-07T05:03:12;10.20;99.90
16243;DHT22;11719;51.052;6.982;2022-12-07T05:05:40;10.20;99.90
16243;DHT22;11719;51.052;6.982;2022-12-07T05:08:07;10.20;99.90
16243;DHT22;11719;51.052;6.982;2022-12-07T05:10:32;10.30;99.90
16243;DHT22;11719;51.052;6.982;2022-12-07T05:12:58;10.50;99.90
16243;DHT22;11719;51.052;6.982;2022-12-07T05:15:24;10.60;99.90
16243;DHT22;11719;51.052;6.982;2022-12-07T05:17:50;10.70;99.90
16243;DHT22;11719;51.052;6.982;2022-12-07T05:20:17;10.70;99.90
16243;DHT22;11719;51.052;6.982;2022-12-07T05:22:43;10.50;99.90
16243;DHT22;11719;51.052;6.982;2022-12-07T05:25:09;10.40;99.90
16243;DHT22;11719;51.052;6.982;2022-12-07T05:27:35;10.30;99.90
16243;DHT22;11719;51.052;6.982;2022-12-07T05:30:00;10.20;99.90
16243;DHT22;11719;51.052;6.982;2022-12-07T05:32:26;10.10;99.90
16243;DHT22;11719;51.052;6.982;2022-12-07T05:34:52;10.00;99.90
16243;DHT22;11719;51.052;6.982;2022-12-07T05:37:20;10.00;99.90
16243;DHT22;11719;51.052;6.982;2022-12-07T05:39:45;10.10;99.90
16243;DHT22;11719;51.052;6.982;2022-12-07T05:42:11;10.10;99.90
16243;DHT22;11719;51.052;6.982;2022-12-07T05:44:38;10.10;99.90
16243;DHT22;11719;51.052;6.982;2022-12-07T05:47:08;10.00;99.90
16243;DHT22;11719;51.052;6.982;2022-12-07T05:49:34;10.00;99.90
16243;DHT22;11719;51.052;6.982;2022-12-07T05:52:00;9.90;99.90
16243;DHT22;11719;51.052;6.982;2022-12-07T05:54:27;10.00;99.90
16243;DHT22;11719;51.052;6.982;2022-12-07T05:56:52;9.90;99.90
16243;DHT22;11719;51.052;6.982;2022-12-07T05:59:18;9.80;99.90
16243;DHT22;11719;51.052;6.982;2022-12-07T06:02:08;9.80;99.90
16243;DHT22;11719;51.052;6.982;2022-12-07T06:04:38;9.90;99.90
16243;DHT22;11719;51.052;6.982;2022-12-07T06:07:06;9.80;99.90
16243;DHT22;11719;51.052;6.982;2022-12-07T06:09:33;9.70;99.90
16243;DHT22;11719;51.052;6.982;2022-12-07T06:12:00;9.80;99.90
16243;DHT22;11719;51.052;6.982;2022-12-07T06:14:44;10.10;99.90
16243;DHT22;11719;51.052;6.982;2022-12-07T06:17:11;10.10;99.90
16243;DHT22;11719;51.052;6.982;2022-12-07T06:19:38;10.10;99.90
16243;DHT22;11719;51.052;6.982;2022-12-07T06:22:04;10.10;99.90
16243;DHT22;11719;51.052;6.982;2022-12-07T06:24:31;10.00;99.90
16243;DHT22;11719;51.052;6.982;2022-12-07T06:26:58;9.90;99.90
16243;DHT22;11719;51.052;6.982;2022-12-07T06:29:24;9.90;99.90
16243;DHT22;11719;51.052;6.982;2022-12-07T06:31:50;9.90;99.90
16243;DHT22;11719;51.052;6.982;2022-12-07T06:34:19;9.80;99.90
16243;DHT22;11719;51.052;6.982;2022-12-07T06:36:48;9.80;99.90
16243;DHT22;11719;51.052;6.982;2022-12-07T06:39:18;9.80;99.90
16243;DHT22;11719;51.052;6.982;2022-12-07T06:41:46;9.70;99.90
16243;DHT22;11719;51.052;6.982;2022-12-07T06:44:12;9.60;99.90
16243;DHT22;11719;51.052;6.982;2022-12-07T06:46:38;9.80;99.90
16243;DHT22;11719;51.052;6.982;2022-12-07T06:49:04;9.80;99.90
16243;DHT22;11719;51.052;6.982;2022-12-07T06:51:32;10.10;99.90
16243;DHT22;11719;51.052;6.982;2022-12-07T06:53:58;10.40;99.90
16243;DHT22;11719;51.052;6.982;2022-12-07T06:56:24;10.40;99.90
16243;DHT22;11719;51.052;6.982;2022-12-07T06:58:50;10.20;99.90
16243;DHT22;11719;51.052;6.982;2022-12-07T07:01:17;10.30;99.90
16243;DHT22;11719;51.052;6.982;2022-12-07T07:03:44;10.40;99.90
16243;DHT22;11719;51.052;6.982;2022-12-07T07:06:11;10.20;99.90
16243;DHT22;11719;51.052;6.982;2022-12-07T07:08:38;10.10;99.90
16243;DHT22;11719;51.052;6.982;2022-12-07T07:11:04;10.10;99.90
16243;DHT22;11719;51.052;6.982;2022-12-07T07:13:31;10.00;99.90
16243;DHT22;11719;51.052;6.982;2022-12-07T07:15:56;9.90;99.90
16243;DHT22;11719;51.052;6.982;2022-12-07T07:18:23;9.80;99.90
16243;DHT22;11719;51.052;6.982;2022-12-07T07:20:50;9.80;99.90
16243;DHT22;11719;51.052;6.982;2022-12-07T07:23:17;9.80;99.90
16243;DHT22;11719;51.052;6.982;2022-12-07T07:25:43;9.80;99.90
16243;DHT22;11719;51.052;6.982;2022-12-07T07:28:09;9.80;99.90
16243;DHT22;11719;51.052;6.982;2022-12-07T07:30:35;9.70;99.90
16243;DHT22;11719;51.052;6.982;2022-12-07T07:33:02;9.70;99.90
16243;DHT22;11719;51.052;6.982;2022-12-07T07:35:30;9.70;99.90
16243;DHT22;11719;51.052;6.982;2022-12-07T07:37:56;9.70;99.90
16243;DHT22;11719;51.052;6.982;2022-12-07T07:40:22;9.70;99.90
16243;DHT22;11719;51.052;6.982;2022-12-07T07:42:49;9.80;99.90
16243;DHT22;11719;51.052;6.982;2022-12-07T07:45:16;9.90;99.90
16243;DHT22;11719;51.052;6.982;2022-12-07T07:47:42;9.90;99.90
16243;DHT22;11719;51.052;6.982;2022-12-07T07:50:09;9.80;99.90
16243;DHT22;11719;51.052;6.982;2022-12-07T07:52:35;9.80;99.90
16243;DHT22;11719;51.052;6.982;2022-12-07T07:55:00;9.80;99.90
16243;DHT22;11719;51.052;6.982;2022-12-07T07:57:26;9.70;99.90
16243;DHT22;11719;51.052;6.982;2022-12-07T07:59:52;9.60;99.90
16243;DHT22;11719;51.052;6.982;2022-12-07T08:02:21;9.50;99.90
16243;DHT22;11719;51.052;6.982;2022-12-07T08:04:47;9.40;99.90
16243;DHT22;11719;51.052;6.982;2022-12-07T08:07:14;9.30;99.90
16243;DHT22;11719;51.052;6.982;2022-12-07T08:09:41;9.50;99.90
16243;DHT22;11719;51.052;6.982;2022-12-07T08:12:07;9.60;99.90
16243;DHT22;11719;51.052;6.982;2022-12-07T08:14:33;9.70;99.90
16243;DHT22;11719;51.052;6.982;2022-12-07T08:17:00;9.80;99.90
16243;DHT22;11719;51.052;6.982;2022-12-07T08:19:26;9.90;99.90
16243;DHT22;11719;51.052;6.982;2022-12-07T08:21:51;9.90;99.90
16243;DHT22;11719;51.052;6.982;2022-12-07T08:24:18;9.90;99.90
16243;DHT22;11719;51.052;6.982;2022-12-07T08:26:44;10.00;99.90
16243;DHT22;11719;51.052;6.982;2022-12-07T08:29:09;10.20;99.90
16243;DHT22;11719;51.052;6.982;2022-12-07T08:31:36;10.50;99.90
16243;DHT22;11719;51.052;6.982;2022-12-07T08:34:02;10.50;99.90
16243;DHT22;11719;51.052;6.982;2022-12-07T08:36:28;10.40;99.90
16243;DHT22;11719;51.052;6.982;2022-12-07T08:38:53;10.30;99.90
16243;DHT22;11719;51.052;6.982;2022-12-07T08:41:19;10.20;99.90
16243;DHT22;11719;51.052;6.982;2022-12-07T08:43:45;10.20;99.90
16243;DHT22;11719;51.052;6.982;2022-12-07T08:46:28;10.00;99.90
16243;DHT22;11719;51.052;6.982;2022-12-07T08:49:24;10.00;99.90
16243;DHT22;11719;51.052;6.982;2022-12-07T08:52:01;9.80;99.90
16243;DHT22;11719;51.052;6.982;2022-12-07T08:54:30;9.80;99.90
16243;DHT22;11719;51.052;6.982;2022-12-07T08:56:56;9.70;99.90
16243;DHT22;11719;51.052;6.982;2022-12-07T08:59:22;9.70;99.90
16243;DHT22;11719;51.052;6.982;2022-12-07T09:01:48;9.70;99.90
16243;DHT22;11719;51.052;6.982;2022-12-07T09:04:14;9.70;99.90
16243;DHT22;11719;51.052;6.982;2022-12-07T09:06:41;9.70;99.90
16243;DHT22;11719;51.052;6.982;2022-12-07T09:09:08;9.70;99.90
16243;DHT22;11719;51.052;6.982;2022-12-07T09:11:35;9.70;99.90
16243;DHT22;11719;51.052;6.982;2022-12-07T09:14:00;9.70;99.90
16243;DHT22;11719;51.052;6.982;2022-12-07T09:16:26;9.70;99.90
16243;DHT22;11719;51.052;6.982;2022-12-07T09:18:52;9.70;99.90
16243;DHT22;11719;51.052;6.982;2022-12-07T09:21:18;9.80;99.90
16243;DHT22;11719;51.052;6.982;2022-12-07T09:23:44;9.80;99.90
16243;DHT22;11719;51.052;6.982;2022-12-07T09:26:10;9.80;99.90
16243;DHT22;11719;51.052;6.982;2022-12-07T09:28:35;9.70;99.90
16243;DHT22;11719;51.052;6.982;2022-12-07T09:31:02;9.90;99.90
16243;DHT22;11719;51.052;6.982;2022-12-07T09:33:29;10.10;99.90
16243;DHT22;11719;51.052;6.982;2022-12-07T09:35:54;10.20;99.90
16243;DHT22;11719;51.052;6.982;2022-12-07T09:38:20;10.30;99.90
16243;DHT22;11719;51.052;6.982;2022-12-07T09:40:47;10.20;99.90
16243;DHT22;11719;51.052;6.982;2022-12-07T09:43:22;9.90;99.90
16243;DHT22;11719;51.052;6.982;2022-12-07T09:45:51;9.70;99.90
16243;DHT22;11719;51.052;6.982;2022-12-07T09:48:36;9.80;99.90
16243;DHT22;11719;51.052;6.982;2022-12-07T09:53:39;9.90;99.90
16243;DHT22;11719;51.052;6.982;2022-12-07T09:56:05;9.80;99.90
16243;DHT22;11719;51.052;6.982;2022-12-07T09:58:32;9.90;99.90
16243;DHT22;11719;51.052;6.982;2022-12-07T10:01:01;10.00;99.90
16243;DHT22;11719;51.052;6.982;2022-12-07T10:03:36;10.00;99.90
16243;DHT22;11719;51.052;6.982;2022-12-07T10:06:05;10.00;99.90
16243;DHT22;11719;51.052;6.982;2022-12-07T10:08:31;10.00;99.90
16243;DHT22;11719;51.052;6.982;2022-12-07T10:10:59;10.00;99.90
16243;DHT22;11719;51.052;6.982;2022-12-07T10:13:37;10.00;99.90
16243;DHT22;11719;51.052;6.982;2022-12-07T10:16:04;10.00;99.90
16243;DHT22;11719;51.052;6.982;2022-12-07T10:18:37;10.00;99.90
16243;DHT22;11719;51.052;6.982;2022-12-07T10:21:16;10.00;99.90
16243;DHT22;11719;51.052;6.982;2022-12-07T10:24:05;9.90;99.90
16243;DHT22;11719;51.052;6.982;2022-12-07T10:26:52;9.90;99.90
16243;DHT22;11719;51.052;6.982;2022-12-07T10:29:28;9.90;99.90
16243;DHT22;11719;51.052;6.982;2022-12-07T10:32:05;9.90;99.90
16243;DHT22;11719;51.052;6.982;2022-12-07T10:34:36;10.00;99.90
16243;DHT22;11719;51.052;6.982;2022-12-07T10:37:23;10.10;99.90
16243;DHT22;11719;51.052;6.982;2022-12-07T10:39:56;10.20;99.90
16243;DHT22;11719;51.052;6.982;2022-12-07T10:45:27;10.10;99.90
16243;DHT22;11719;51.052;6.982;2022-12-07T10:51:00;10.30;99.90
16243;DHT22;11719;51.052;6.982;2022-12-07T10:53:52;10.80;99.90
16243;DHT22;11719;51.052;6.982;2022-12-07T11:00:01;10.60;99.90
16243;DHT22;11719;51.052;6.982;2022-12-07T11:17:02;11.10;99.90
16243;DHT22;11719;51.052;6.982;2022-12-07T11:23:00;11.50;99.90
16243;DHT22;11719;51.052;6.982;2022-12-07T11:37:12;11.20;99.90
16243;DHT22;11719;51.052;6.982;2022-12-07T11:42:21;11.00;99.90
16243;DHT22;11719;51.052;6.982;2022-12-07T11:45:02;10.80;99.90
16243;DHT22;11719;51.052;6.982;2022-12-07T11:51:10;10.70;99.90
16243;DHT22;11719;51.052;6.982;2022-12-07T11:53:44;10.50;99.90
16243;DHT22;11719;51.052;6.982;2022-12-07T11:56:16;10.50;99.90
16243;DHT22;11719;51.052;6.982;2022-12-07T12:04:37;10.40;99.90
16243;DHT22;11719;51.052;6.982;2022-12-07T12:07:16;10.30;99.90
16243;DHT22;11719;51.052;6.982;2022-12-07T12:09:58;10.20;99.90
16243;DHT22;11719;51.052;6.982;2022-12-07T12:12:36;10.20;99.90
16243;DHT22;11719;51.052;6.982;2022-12-07T12:20:49;10.20;99.90
16243;DHT22;11719;51.052;6.982;2022-12-07T12:23:20;10.40;99.90
16243;DHT22;11719;51.052;6.982;2022-12-07T12:25:53;10.50;99.90
16243;DHT22;11719;51.052;6.982;2022-12-07T12:33:58;10.70;99.90
16243;DHT22;11719;51.052;6.982;2022-12-07T12:39:12;10.80;99.90
16243;DHT22;11719;51.052;6.982;2022-12-07T12:47:02;10.70;99.90
16243;DHT22;11719;51.052;6.982;2022-12-07T12:49:40;10.70;99.90
16243;DHT22;11719;51.052;6.982;2022-12-07T12:55:11;10.50;99.90
16243;DHT22;11719;51.052;6.982;2022-12-07T12:57:39;10.50;99.90
16243;DHT22;11719;51.052;6.982;2022-12-07T13:00:22;10.60;99.90
16243;DHT22;11719;51.052;6.982;2022-12-07T13:02:56;10.80;99.90
16243;DHT22;11719;51.052;6.982;2022-12-07T13:05:30;10.70;99.90
16243;DHT22;11719;51.052;6.982;2022-12-07T13:08:19;10.80;99.90
16243;DHT22;11719;51.052;6.982;2022-12-07T13:10:46;11.10;99.90
16243;DHT22;11719;51.052;6.982;2022-12-07T13:20:58;12.40;99.90
16243;DHT22;11719;51.052;6.982;2022-12-07T13:26:20;12.90;99.90
16243;DHT22;11719;51.052;6.982;2022-12-07T13:29:10;12.70;99.90
16243;DHT22;11719;51.052;6.982;2022-12-07T13:31:47;12.90;99.90
16243;DHT22;11719;51.052;6.982;2022-12-07T13:34:38;13.20;99.90
16243;DHT22;11719;51.052;6.982;2022-12-07T13:39:55;13.70;99.90
16243;DHT22;11719;51.052;6.982;2022-12-07T13:44:58;13.70;99.90
16243;DHT22;11719;51.052;6.982;2022-12-07T13:49:57;13.80;99.90
16243;DHT22;11719;51.052;6.982;2022-12-07T13:52:26;13.60;99.90
16243;DHT22;11719;51.052;6.982;2022-12-07T13:57:32;13.50;99.90
16243;DHT22;11719;51.052;6.982;2022-12-07T14:00:01;13.50;99.90
16243;DHT22;11719;51.052;6.982;2022-12-07T14:02:32;13.70;99.90
16243;DHT22;11719;51.052;6.982;2022-12-07T14:05:13;13.80;99.90
16243;DHT22;11719;51.052;6.982;2022-12-07T14:10:26;13.40;99.90
16243;DHT22;11719;51.052;6.982;2022-12-07T14:12:53;13.40;99.90
16243;DHT22;11719;51.052;6.982;2022-12-07T14:15:22;13.30;99.90
16243;DHT22;11719;51.052;6.982;2022-12-07T14:17:51;13.10;99.90
16243;DHT22;11719;51.052;6.982;2022-12-07T14:20:38;12.70;99.90
16243;DHT22;11719;51.052;6.982;2022-12-07T14:23:24;12.60;99.90
16243;DHT22;11719;51.052;6.982;2022-12-07T14:25:52;12.60;99.90
16243;DHT22;11719;51.052;6.982;2022-12-07T14:28:33;12.70;99.90
16243;DHT22;11719;51.052;6.982;2022-12-07T14:31:01;12.70;99.90
16243;DHT22;11719;51.052;6.982;2022-12-07T14:33:27;12.80;99.90
16243;DHT22;11719;51.052;6.982;2022-12-07T14:35:54;12.70;99.90
16243;DHT22;11719;51.052;6.982;2022-12-07T14:38:23;12.80;99.90
16243;DHT22;11719;51.052;6.982;2022-12-07T14:40:50;13.00;99.90
16243;DHT22;11719;51.052;6.982;2022-12-07T14:43:18;13.00;99.90
16243;DHT22;11719;51.052;6.982;2022-12-07T14:45:44;12.90;99.90
16243;DHT22;11719;51.052;6.982;2022-12-07T14:48:15;12.60;99.90
16243;DHT22;11719;51.052;6.982;2022-12-07T14:50:45;12.60;99.90
16243;DHT22;11719;51.052;6.982;2022-12-07T14:53:19;12.30;99.90
16243;DHT22;11719;51.052;6.982;2022-12-07T14:55:48;12.00;99.90
16243;DHT22;11719;51.052;6.982;2022-12-07T14:58:15;11.80;99.90
16243;DHT22;11719;51.052;6.982;2022-12-07T15:00:42;11.60;99.90
16243;DHT22;11719;51.052;6.982;2022-12-07T15:03:08;11.50;99.90
16243;DHT22;11719;51.052;6.982;2022-12-07T15:05:34;11.30;99.90
16243;DHT22;11719;51.052;6.982;2022-12-07T15:08:01;11.30;99.90
16243;DHT22;11719;51.052;6.982;2022-12-07T15:10:29;11.30;99.90
16243;DHT22;11719;51.052;6.982;2022-12-07T15:13:01;11.20;99.90
16243;DHT22;11719;51.052;6.982;2022-12-07T15:15:50;11.30;99.90
16243;DHT22;11719;51.052;6.982;2022-12-07T15:18:18;11.20;99.90
16243;DHT22;11719;51.052;6.982;2022-12-07T15:20:45;11.10;99.90
16243;DHT22;11719;51.052;6.982;2022-12-07T15:23:12;11.20;99.90
16243;DHT22;11719;51.052;6.982;2022-12-07T15:25:41;11.40;99.90
16243;DHT22;11719;51.052;6.982;2022-12-07T15:28:08;11.80;99.90
16243;DHT22;11719;51.052;6.982;2022-12-07T15:30:34;12.30;99.90
16243;DHT22;11719;51.052;6.982;2022-12-07T15:33:02;12.70;99.90
16243;DHT22;11719;51.052;6.982;2022-12-07T15:35:28;12.40;99.90
16243;DHT22;11719;51.052;6.982;2022-12-07T15:37:53;12.20;99.90
16243;DHT22;11719;51.052;6.982;2022-12-07T15:40:19;12.30;99.90
16243;DHT22;11719;51.052;6.982;2022-12-07T15:42:45;12.80;99.90
16243;DHT22;11719;51.052;6.982;2022-12-07T15:45:11;13.10;99.90
16243;DHT22;11719;51.052;6.982;2022-12-07T15:47:41;13.20;99.90
16243;DHT22;11719;51.052;6.982;2022-12-07T15:50:11;13.30;99.90
16243;DHT22;11719;51.052;6.982;2022-12-07T15:52:39;13.30;99.90
16243;DHT22;11719;51.052;6.982;2022-12-07T15:55:05;13.40;99.90
16243;DHT22;11719;51.052;6.982;2022-12-07T15:57:33;13.40;99.90
16243;DHT22;11719;51.052;6.982;2022-12-07T16:00:06;13.60;99.90
16243;DHT22;11719;51.052;6.982;2022-12-07T16:02:34;13.40;99.90
16243;DHT22;11719;51.052;6.982;2022-12-07T16:05:01;13.10;99.90
16243;DHT22;11719;51.052;6.982;2022-12-07T16:07:27;13.00;99.90
16243;DHT22;11719;51.052;6.982;2022-12-07T16:09:52;12.60;99.90
16243;DHT22;11719;51.052;6.982;2022-12-07T16:12:18;12.40;99.90
16243;DHT22;11719;51.052;6.982;2022-12-07T16:14:44;12.50;99.90
16243;DHT22;11719;51.052;6.982;2022-12-07T16:17:10;12.50;99.90
16243;DHT22;11719;51.052;6.982;2022-12-07T16:19:37;12.40;99.90
16243;DHT22;11719;51.052;6.982;2022-12-07T16:22:03;12.30;99.90
16243;DHT22;11719;51.052;6.982;2022-12-07T16:24:30;12.30;99.90
16243;DHT22;11719;51.052;6.982;2022-12-07T16:26:56;12.20;99.90
16243;DHT22;11719;51.052;6.982;2022-12-07T16:29:22;12.20;99.90
16243;DHT22;11719;51.052;6.982;2022-12-07T16:31:50;12.30;99.90
16243;DHT22;11719;51.052;6.982;2022-12-07T16:34:17;12.60;99.90
16243;DHT22;11719;51.052;6.982;2022-12-07T16:36:43;12.40;99.90
16243;DHT22;11719;51.052;6.982;2022-12-07T16:39:09;12.70;99.90
16243;DHT22;11719;51.052;6.982;2022-12-07T16:41:35;12.90;99.90
16243;DHT22;11719;51.052;6.982;2022-12-07T16:44:03;12.90;99.90
16243;DHT22;11719;51.052;6.982;2022-12-07T16:46:35;12.50;99.90
16243;DHT22;11719;51.052;6.982;2022-12-07T16:49:01;12.60;99.90
16243;DHT22;11719;51.052;6.982;2022-12-07T16:51:28;12.60;99.90
16243;DHT22;11719;51.052;6.982;2022-12-07T16:53:54;12.50;99.90
16243;DHT22;11719;51.052;6.982;2022-12-07T16:56:20;12.40;99.90
16243;DHT22;11719;51.052;6.982;2022-12-07T16:58:46;12.40;99.90
16243;DHT22;11719;51.052;6.982;2022-12-07T17:01:21;12.10;99.90
16243;DHT22;11719;51.052;6.982;2022-12-07T17:03:48;12.30;99.90
16243;DHT22;11719;51.052;6.982;2022-12-07T17:08:44;12.70;99.90
16243;DHT22;11719;51.052;6.982;2022-12-07T17:11:19;12.80;99.90
16243;DHT22;11719;51.052;6.982;2022-12-07T17:13:47;12.30;99.90
16243;DHT22;11719;51.052;6.982;2022-12-07T17:16:32;11.70;99.90
16243;DHT22;11719;51.052;6.982;2022-12-07T17:18:59;11.40;99.90
16243;DHT22;11719;51.052;6.982;2022-12-07T17:21:24;11.20;99.90
16243;DHT22;11719;51.052;6.982;2022-12-07T17:23:50;11.10;99.90
16243;DHT22;11719;51.052;6.982;2022-12-07T17:26:19;11.20;99.90
16243;DHT22;11719;51.052;6.982;2022-12-07T17:28:48;11.60;99.90
16243;DHT22;11719;51.052;6.982;2022-12-07T17:31:16;12.10;99.90
16243;DHT22;11719;51.052;6.982;2022-12-07T17:33:43;12.10;99.90
16243;DHT22;11719;51.052;6.982;2022-12-07T17:36:11;12.00;99.90
16243;DHT22;11719;51.052;6.982;2022-12-07T17:38:40;11.80;99.90
16243;DHT22;11719;51.052;6.982;2022-12-07T17:41:14;12.10;99.90
16243;DHT22;11719;51.052;6.982;2022-12-07T17:44:04;12.10;99.90
16243;DHT22;11719;51.052;6.982;2022-12-07T17:46:31;11.80;99.90
16243;DHT22;11719;51.052;6.982;2022-12-07T17:48:58;11.80;99.90
16243;DHT22;11719;51.052;6.982;2022-12-07T17:51:24;11.70;99.90
16243;DHT22;11719;51.052;6.982;2022-12-07T17:54:09;11.80;99.90
16243;DHT22;11719;51.052;6.982;2022-12-07T17:56:36;11.80;99.90
16243;DHT22;11719;51.052;6.982;2022-12-07T17:59:02;11.80;99.90
16243;DHT22;11719;51.052;6.982;2022-12-07T18:01:28;11.80;99.90
16243;DHT22;11719;51.052;6.982;2022-12-07T18:03:54;11.80;99.90
16243;DHT22;11719;51.052;6.982;2022-12-07T18:06:20;12.10;99.90
16243;DHT22;11719;51.052;6.982;2022-12-07T18:08:46;11.80;99.90
16243;DHT22;11719;51.052;6.982;2022-12-07T18:11:12;11.60;99.90
16243;DHT22;11719;51.052;6.982;2022-12-07T18:13:38;11.70;99.90
16243;DHT22;11719;51.052;6.982;2022-12-07T18:16:10;12.00;99.90